createdAt,value
2024-02-19T00:02:11.945Z,13.52
2024-02-19T00:04:38.417Z,13.50
2024-02-19T00:07:04.919Z,13.48
2024-02-19T00:09:31.297Z,13.34
2024-02-19T00:11:57.821Z,13.44
2024-02-19T00:14:24.187Z,13.41
2024-02-19T00:16:50.539Z,13.42
2024-02-19T00:19:17.125Z,13.34
2024-02-19T00:21:43.593Z,13.38
2024-02-19T00:24:09.953Z,13.42
2024-02-19T00:26:36.308Z,13.41
2024-02-19T00:29:02.651Z,13.42
2024-02-19T00:31:28.996Z,13.41
2024-02-19T00:33:55.566Z,13.45
2024-02-19T00:36:22.262Z,13.42
2024-02-19T00:38:48.606Z,13.45
2024-02-19T00:41:14.971Z,13.43
2024-02-19T00:43:41.316Z,13.40
2024-02-19T00:46:07.742Z,13.38
2024-02-19T00:48:34.423Z,13.43
2024-02-19T00:51:00.906Z,13.35
2024-02-19T00:53:27.238Z,13.31
2024-02-19T00:55:54.096Z,13.36
2024-02-19T00:58:20.664Z,13.22
2024-02-19T01:00:47.224Z,13.35
2024-02-19T01:03:13.681Z,13.36
2024-02-19T01:05:40.048Z,13.40
2024-02-19T01:08:06.412Z,13.29
2024-02-19T01:10:32.776Z,13.30
2024-02-19T01:12:59.174Z,13.30
2024-02-19T01:15:25.578Z,13.30
2024-02-19T01:17:52.050Z,13.26
2024-02-19T01:20:18.458Z,13.27
2024-02-19T01:22:44.830Z,13.25
2024-02-19T01:25:11.270Z,13.26
2024-02-19T01:27:37.720Z,13.23
2024-02-19T01:30:04.092Z,13.26
2024-02-19T01:32:30.474Z,13.23
2024-02-19T01:34:56.971Z,13.15
2024-02-19T01:37:23.469Z,13.23
2024-02-19T01:39:49.904Z,13.22
2024-02-19T01:42:16.269Z,13.23
2024-02-19T01:44:42.640Z,13.20
2024-02-19T01:47:09.021Z,13.24
2024-02-19T01:49:35.434Z,13.26
2024-02-19T01:52:01.868Z,13.18
2024-02-19T01:54:29.053Z,13.19
2024-02-19T01:56:55.394Z,13.27
2024-02-19T01:59:21.735Z,13.25
2024-02-19T02:01:48.291Z,13.24
2024-02-19T02:04:14.693Z,13.31
2024-02-19T02:06:41.106Z,13.26
2024-02-19T02:09:07.510Z,13.24
2024-02-19T02:11:33.944Z,13.30
2024-02-19T02:14:00.343Z,13.33
2024-02-19T02:16:26.737Z,13.28
2024-02-19T02:18:54.588Z,13.31
2024-02-19T02:21:21.385Z,13.35
2024-02-19T02:23:47.754Z,13.31
2024-02-19T02:26:17.084Z,13.28
2024-02-19T02:28:43.434Z,13.36
2024-02-19T02:31:09.859Z,13.34
2024-02-19T02:33:36.374Z,13.28
2024-02-19T02:36:02.781Z,13.32
2024-02-19T02:38:29.155Z,13.27
2024-02-19T02:40:55.491Z,13.30
2024-02-19T02:43:21.847Z,13.31
2024-02-19T02:45:49.015Z,13.34
2024-02-19T02:48:16.219Z,13.32
2024-02-19T02:50:42.638Z,13.32
2024-02-19T02:53:08.985Z,13.34
2024-02-19T02:55:35.318Z,13.34
2024-02-19T02:58:01.690Z,13.32
2024-02-19T03:00:28.084Z,13.37
2024-02-19T03:02:54.471Z,13.41
2024-02-19T03:05:20.846Z,13.44
2024-02-19T03:07:47.399Z,13.45
2024-02-19T03:10:14.048Z,13.43
2024-02-19T03:12:40.439Z,13.34
2024-02-19T03:15:06.811Z,13.28
2024-02-19T03:17:33.189Z,13.34
2024-02-19T03:19:59.599Z,13.31
2024-02-19T03:22:26.074Z,13.26
2024-02-19T03:24:52.455Z,13.22
2024-02-19T03:27:18.806Z,13.20
2024-02-19T03:29:47.938Z,13.22
2024-02-19T03:32:14.292Z,13.17
2024-02-19T03:34:40.708Z,13.26
2024-02-19T03:37:07.283Z,13.28
2024-02-19T03:39:33.680Z,13.32
2024-02-19T03:42:00.042Z,13.30
2024-02-19T03:44:26.444Z,13.26
2024-02-19T03:46:52.877Z,13.30
2024-02-19T03:49:19.377Z,13.22
2024-02-19T03:51:45.854Z,13.25
2024-02-19T03:54:14.262Z,13.24
2024-02-19T03:56:40.899Z,13.26
2024-02-19T03:59:07.653Z,13.20
2024-02-19T04:01:34.091Z,13.17
2024-02-19T04:04:00.659Z,13.13
2024-02-19T04:06:27.126Z,13.17
2024-02-19T04:08:53.526Z,13.20
2024-02-19T04:11:19.931Z,13.18
2024-02-19T04:13:46.320Z,13.14
2024-02-19T04:16:12.744Z,13.11
2024-02-19T04:18:39.305Z,13.14
2024-02-19T04:21:05.729Z,13.06
2024-02-19T04:23:32.098Z,13.15
2024-02-19T04:25:58.435Z,13.11
2024-02-19T04:28:24.946Z,13.14
2024-02-19T04:30:51.359Z,13.12
2024-02-19T04:33:17.842Z,13.09
2024-02-19T04:35:44.258Z,13.09
2024-02-19T04:38:10.595Z,13.08
2024-02-19T04:40:36.921Z,13.06
2024-02-19T04:43:03.310Z,13.09
2024-02-19T04:45:29.776Z,13.12
2024-02-19T04:47:56.143Z,13.08
2024-02-19T04:50:22.684Z,13.13
2024-02-19T04:52:49.128Z,13.11
2024-02-19T04:55:15.524Z,13.10
2024-02-19T04:57:41.947Z,13.03
2024-02-19T05:00:08.362Z,13.07
2024-02-19T05:02:34.739Z,13.05
2024-02-19T05:05:01.260Z,13.04
2024-02-19T05:07:27.713Z,13.02
2024-02-19T05:09:54.677Z,12.98
2024-02-19T05:12:21.103Z,13.02
2024-02-19T05:14:47.472Z,12.93
2024-02-19T05:17:13.820Z,13.01
2024-02-19T05:19:40.397Z,13.03
2024-02-19T05:22:06.836Z,13.04
2024-02-19T05:24:33.253Z,13.03
2024-02-19T05:26:59.612Z,12.97
2024-02-19T05:29:28.870Z,12.94
2024-02-19T05:31:55.267Z,12.98
2024-02-19T05:34:21.807Z,12.94
2024-02-19T05:36:48.350Z,12.92
2024-02-19T05:39:14.817Z,12.90
2024-02-19T05:41:41.288Z,12.90
2024-02-19T05:44:07.757Z,12.95
2024-02-19T05:46:34.105Z,12.95
2024-02-19T05:49:00.646Z,13.02
2024-02-19T05:51:27.066Z,12.97
2024-02-19T05:53:53.408Z,13.00
2024-02-19T05:56:19.772Z,13.06
2024-02-19T05:58:46.122Z,13.00
2024-02-19T06:01:12.703Z,12.98
2024-02-19T06:03:39.329Z,12.99
2024-02-19T06:06:05.763Z,12.98
2024-02-19T06:08:32.127Z,12.88
2024-02-19T06:10:58.676Z,12.91
2024-02-19T06:13:25.214Z,12.92
2024-02-19T06:15:51.624Z,12.90
2024-02-19T06:18:18.360Z,12.97
2024-02-19T06:20:44.806Z,12.96
2024-02-19T06:23:11.153Z,13.03
2024-02-19T06:25:37.539Z,13.08
2024-02-19T06:28:03.950Z,13.13
2024-02-19T06:30:30.301Z,13.21
2024-02-19T06:32:56.706Z,13.21
2024-02-19T06:35:23.129Z,13.13
2024-02-19T06:37:49.531Z,13.18
2024-02-19T06:40:16.000Z,13.20
2024-02-19T06:42:42.436Z,13.11
2024-02-19T06:45:08.846Z,13.12
2024-02-19T06:47:35.246Z,13.14
2024-02-19T06:50:01.688Z,13.16
2024-02-19T06:52:28.121Z,13.18
2024-02-19T06:54:54.585Z,13.04
2024-02-19T06:57:20.955Z,13.04
2024-02-19T06:59:47.318Z,13.11
2024-02-19T07:02:14.114Z,13.15
2024-02-19T07:04:40.682Z,13.11
2024-02-19T07:07:07.246Z,13.17
2024-02-19T07:09:33.734Z,13.16
2024-02-19T07:12:00.106Z,13.21
2024-02-19T07:14:26.472Z,13.24
2024-02-19T07:16:52.843Z,13.23
2024-02-19T07:19:19.297Z,13.29
2024-02-19T07:21:45.771Z,13.45
2024-02-19T07:24:12.167Z,13.59
2024-02-19T07:26:38.502Z,13.79
2024-02-19T07:29:04.848Z,13.98
2024-02-19T07:31:31.278Z,14.08
2024-02-19T07:33:57.911Z,13.95
2024-02-19T07:36:24.357Z,13.85
2024-02-19T07:38:50.720Z,13.75
2024-02-19T07:41:17.052Z,13.53
2024-02-19T07:43:43.379Z,13.50
2024-02-19T07:46:09.749Z,13.46
2024-02-19T07:48:36.177Z,13.36
2024-02-19T07:51:02.609Z,13.28
2024-02-19T07:53:28.964Z,13.28
2024-02-19T07:55:55.313Z,13.35
2024-02-19T07:58:21.957Z,13.43
2024-02-19T08:00:48.493Z,13.50
2024-02-19T08:03:14.941Z,13.56
2024-02-19T08:05:41.284Z,13.60
2024-02-19T08:08:07.655Z,13.65
2024-02-19T08:10:34.239Z,13.68
2024-02-19T08:13:00.748Z,13.69
2024-02-19T08:15:27.241Z,13.68
2024-02-19T08:17:53.699Z,13.74
2024-02-19T08:20:20.122Z,13.76
2024-02-19T08:22:47.231Z,13.82
2024-02-19T08:25:13.810Z,13.90
2024-02-19T08:27:40.217Z,13.95
2024-02-19T08:30:06.650Z,14.04
2024-02-19T08:32:33.098Z,14.00
2024-02-19T08:34:59.615Z,14.00
2024-02-19T08:37:26.061Z,14.04
2024-02-19T08:39:52.520Z,14.15
2024-02-19T08:42:18.918Z,14.17
2024-02-19T08:44:45.302Z,14.14
2024-02-19T08:47:11.664Z,14.03
2024-02-19T08:49:38.124Z,14.10
2024-02-19T08:52:04.592Z,14.04
2024-02-19T08:54:30.948Z,14.53
2024-02-19T08:56:57.289Z,14.43
2024-02-19T08:59:23.644Z,14.29
2024-02-19T09:01:50.171Z,14.27
2024-02-19T09:04:16.788Z,14.30
2024-02-19T09:06:43.401Z,14.33
2024-02-19T09:09:09.819Z,14.46
2024-02-19T09:11:36.198Z,14.49
2024-02-19T09:14:02.610Z,14.57
2024-02-19T09:16:29.037Z,14.61
2024-02-19T09:18:55.670Z,14.55
2024-02-19T09:21:22.176Z,14.60
2024-02-19T09:23:48.564Z,14.73
2024-02-19T09:26:14.921Z,14.78
2024-02-19T09:28:41.289Z,14.83
2024-02-19T09:31:07.693Z,14.88
2024-02-19T09:33:34.110Z,14.83
2024-02-19T09:36:00.556Z,14.96
2024-02-19T09:38:26.903Z,15.05
2024-02-19T09:40:53.393Z,15.01
2024-02-19T09:43:19.831Z,14.97
2024-02-19T09:45:46.294Z,14.94
2024-02-19T09:48:12.853Z,15.26
2024-02-19T09:50:39.314Z,15.66
2024-02-19T09:53:05.672Z,15.87
2024-02-19T09:55:32.040Z,15.65
2024-02-19T09:57:58.527Z,15.61
2024-02-19T10:00:24.944Z,15.59
2024-02-19T10:02:51.353Z,15.68
2024-02-19T10:05:17.859Z,15.71
2024-02-19T10:07:44.442Z,15.66
2024-02-19T10:10:10.875Z,15.37
2024-02-19T10:12:37.295Z,15.26
2024-02-19T10:15:03.696Z,15.25
2024-02-19T10:17:30.113Z,15.40
2024-02-19T10:19:56.669Z,15.36
2024-02-19T10:22:23.096Z,15.32
2024-02-19T10:24:49.506Z,15.35
2024-02-19T10:27:15.900Z,15.32
2024-02-19T10:29:42.250Z,15.32
2024-02-19T10:32:08.597Z,15.33
2024-02-19T10:34:35.009Z,15.34
2024-02-19T10:37:01.408Z,15.37
2024-02-19T10:39:27.767Z,15.33
2024-02-19T10:41:54.165Z,15.30
2024-02-19T10:44:20.505Z,15.29
2024-02-19T10:46:46.891Z,15.26
2024-02-19T10:49:13.339Z,15.46
2024-02-19T10:51:40.123Z,15.90
2024-02-19T10:54:06.539Z,16.18
2024-02-19T10:56:32.943Z,16.50
2024-02-19T10:58:59.321Z,16.69
2024-02-19T11:01:25.799Z,16.49
2024-02-19T11:03:52.436Z,16.46
2024-02-19T11:06:18.935Z,16.54
2024-02-19T11:08:45.300Z,16.46
2024-02-19T11:11:11.794Z,16.49
2024-02-19T11:13:38.184Z,16.54
2024-02-19T11:16:04.575Z,16.71
2024-02-19T11:18:31.079Z,16.74
2024-02-19T11:20:57.458Z,16.63
2024-02-19T11:23:23.822Z,16.53
2024-02-19T11:25:50.203Z,16.50
2024-02-19T11:28:16.746Z,16.54
2024-02-19T11:30:43.450Z,16.45
2024-02-19T11:33:09.972Z,16.47
2024-02-19T11:35:36.830Z,16.51
2024-02-19T11:38:03.443Z,16.63
2024-02-19T11:40:29.929Z,16.62
2024-02-19T11:42:56.367Z,16.57
2024-02-19T11:45:22.720Z,16.67
2024-02-19T11:47:49.130Z,16.69
2024-02-19T11:50:15.598Z,16.60
2024-02-19T11:52:42.008Z,16.59
2024-02-19T11:55:08.407Z,16.62
2024-02-19T11:57:34.758Z,16.56
2024-02-19T12:00:01.095Z,16.59
2024-02-19T12:02:27.497Z,16.50
2024-02-19T12:04:53.933Z,16.55
2024-02-19T12:07:20.516Z,16.55
2024-02-19T12:09:47.035Z,16.59
2024-02-19T12:12:13.395Z,16.55
2024-02-19T12:14:39.728Z,16.79
2024-02-19T12:17:06.106Z,16.95
2024-02-19T12:19:32.821Z,16.95
2024-02-19T12:21:59.460Z,16.81
2024-02-19T12:24:25.871Z,16.71
2024-02-19T12:26:52.214Z,16.75
2024-02-19T12:29:18.553Z,16.77
2024-02-19T12:31:44.934Z,16.59
2024-02-19T12:34:11.406Z,16.48
2024-02-19T12:36:37.864Z,16.47
2024-02-19T12:39:04.272Z,16.53
2024-02-19T12:41:30.676Z,16.54
2024-02-19T12:43:57.096Z,16.59
2024-02-19T12:46:23.521Z,16.57
2024-02-19T12:48:50.102Z,16.58
2024-02-19T12:51:16.621Z,16.62
2024-02-19T12:53:43.043Z,16.70
2024-02-19T12:56:09.394Z,16.71
2024-02-19T12:58:35.801Z,16.69
2024-02-19T13:01:09.189Z,16.70
2024-02-19T13:03:39.416Z,16.74
2024-02-19T13:06:05.936Z,16.73
2024-02-19T13:08:32.406Z,16.61
2024-02-19T13:10:58.755Z,16.58
2024-02-19T13:13:25.181Z,16.61
2024-02-19T13:15:51.648Z,16.58
2024-02-19T13:18:18.236Z,16.52
2024-02-19T13:20:44.665Z,16.33
2024-02-19T13:23:11.039Z,16.30
2024-02-19T13:25:37.484Z,16.32
2024-02-19T13:28:03.933Z,16.34
2024-02-19T13:30:30.304Z,16.30
2024-02-19T13:32:56.705Z,16.25
2024-02-19T13:35:23.302Z,16.25
2024-02-19T13:37:49.765Z,16.33
2024-02-19T13:40:16.277Z,16.29
2024-02-19T13:42:42.804Z,16.42
2024-02-19T13:45:09.216Z,16.44
2024-02-19T13:47:35.956Z,16.44
2024-02-19T13:50:03.675Z,16.41
2024-02-19T13:52:30.149Z,16.37
2024-02-19T13:54:56.570Z,16.40
2024-02-19T13:57:22.972Z,16.38
2024-02-19T13:59:49.349Z,16.36
2024-02-19T14:02:15.812Z,16.45
2024-02-19T14:04:42.395Z,16.46
2024-02-19T14:07:08.841Z,16.43
2024-02-19T14:09:35.219Z,16.46
2024-02-19T14:12:01.631Z,16.54
2024-02-19T14:14:28.001Z,16.52
2024-02-19T14:16:54.341Z,16.59
2024-02-19T14:19:20.866Z,16.63
2024-02-19T14:21:47.258Z,16.52
2024-02-19T14:24:13.630Z,16.35
2024-02-19T14:26:40.031Z,16.25
2024-02-19T14:29:06.363Z,16.03
2024-02-19T14:31:32.812Z,15.97
2024-02-19T14:33:59.367Z,15.88
2024-02-19T14:36:25.815Z,16.02
2024-02-19T14:38:52.346Z,16.04
2024-02-19T14:41:18.695Z,15.94
2024-02-19T14:43:45.090Z,15.85
2024-02-19T14:46:11.594Z,15.76
2024-02-19T14:48:38.127Z,15.64
2024-02-19T14:51:04.519Z,15.76
2024-02-19T14:53:30.874Z,15.81
2024-02-19T14:55:57.236Z,15.79
2024-02-19T14:58:23.613Z,15.82
2024-02-19T15:00:50.196Z,15.79
2024-02-19T15:03:16.710Z,15.86
2024-02-19T15:05:43.072Z,15.92
2024-02-19T15:08:09.540Z,15.89
2024-02-19T15:10:36.095Z,15.96
2024-02-19T15:13:02.557Z,15.97
2024-02-19T15:15:28.934Z,16.02
2024-02-19T15:17:55.395Z,16.04
2024-02-19T15:20:22.083Z,16.06
2024-02-19T15:22:48.581Z,16.08
2024-02-19T15:25:15.033Z,16.07
2024-02-19T15:27:41.439Z,16.01
2024-02-19T15:30:07.796Z,16.00
2024-02-19T15:32:34.209Z,16.00
2024-02-19T15:35:00.713Z,16.00
2024-02-19T15:37:27.303Z,16.00
2024-02-19T15:39:53.777Z,15.96
2024-02-19T15:42:20.142Z,15.98
2024-02-19T15:44:47.594Z,15.95
2024-02-19T15:47:13.985Z,15.92
2024-02-19T15:49:40.438Z,15.91
2024-02-19T15:52:06.932Z,15.92
2024-02-19T15:54:33.349Z,15.90
2024-02-19T15:56:59.710Z,15.86
2024-02-19T15:59:26.151Z,15.88
2024-02-19T16:01:54.510Z,15.87
2024-02-19T16:04:22.731Z,15.83
2024-02-19T16:06:49.168Z,15.83
2024-02-19T16:09:15.640Z,15.85
2024-02-19T16:11:42.036Z,15.89
2024-02-19T16:14:08.425Z,15.82
2024-02-19T16:16:34.878Z,15.86
2024-02-19T16:19:01.451Z,15.85
2024-02-19T16:21:27.886Z,15.84
2024-02-19T16:23:54.274Z,15.84
2024-02-19T16:26:20.649Z,15.72
2024-02-19T16:28:46.996Z,15.65
2024-02-19T16:31:13.429Z,15.61
2024-02-19T16:33:39.956Z,15.60
2024-02-19T16:36:08.888Z,15.59
2024-02-19T16:38:35.519Z,15.58
2024-02-19T16:41:01.895Z,15.57
2024-02-19T16:43:28.316Z,15.56
2024-02-19T16:45:54.865Z,15.50
2024-02-19T16:48:21.552Z,15.51
2024-02-19T16:50:47.995Z,15.49
2024-02-19T16:53:14.364Z,15.52
2024-02-19T16:55:40.768Z,15.47
2024-02-19T16:58:07.128Z,15.44
2024-02-19T17:00:33.524Z,15.37
2024-02-19T17:02:59.876Z,15.37
2024-02-19T17:05:26.534Z,15.34
2024-02-19T17:07:53.265Z,15.34
2024-02-19T17:10:19.822Z,15.30
2024-02-19T17:12:46.400Z,15.28
2024-02-19T17:15:12.857Z,15.25
2024-02-19T17:17:39.227Z,15.25
2024-02-19T17:20:05.667Z,15.21
2024-02-19T17:22:32.093Z,15.11
2024-02-19T17:24:58.479Z,15.09
2024-02-19T17:27:24.841Z,15.04
2024-02-19T17:29:51.229Z,15.01
2024-02-19T17:32:17.597Z,15.03
2024-02-19T17:34:44.219Z,15.01
2024-02-19T17:37:10.870Z,15.03
2024-02-19T17:39:37.307Z,15.02
2024-02-19T17:42:03.652Z,15.04
2024-02-19T17:44:30.045Z,15.10
2024-02-19T17:46:56.420Z,15.13
2024-02-19T17:49:22.877Z,15.12
2024-02-19T17:51:49.351Z,15.10
2024-02-19T17:54:15.724Z,15.14
2024-02-19T17:56:42.076Z,15.13
2024-02-19T17:59:10.759Z,15.14
2024-02-19T18:01:38.202Z,15.15
2024-02-19T18:04:04.714Z,15.18
2024-02-19T18:06:33.392Z,15.14
2024-02-19T18:08:59.953Z,15.09
2024-02-19T18:11:26.399Z,15.10
2024-02-19T18:13:52.842Z,15.10
2024-02-19T18:16:19.275Z,15.11
2024-02-19T18:18:45.972Z,15.15
2024-02-19T18:21:12.481Z,15.14
2024-02-19T18:23:38.834Z,15.12
2024-02-19T18:26:06.877Z,15.07
2024-02-19T18:28:33.649Z,15.05
2024-02-19T18:31:00.090Z,15.01
2024-02-19T18:33:26.487Z,15.03
2024-02-19T18:35:52.856Z,15.00
2024-02-19T18:38:19.251Z,14.99
2024-02-19T18:40:45.622Z,14.93
2024-02-19T18:43:12.015Z,14.86
2024-02-19T18:45:38.373Z,14.87
2024-02-19T18:48:04.822Z,14.81
2024-02-19T18:50:31.352Z,14.84
2024-02-19T18:52:57.909Z,14.91
2024-02-19T18:55:24.312Z,14.92
2024-02-19T18:57:50.755Z,14.89
2024-02-19T19:00:17.183Z,14.86
2024-02-19T19:02:43.771Z,14.85
2024-02-19T19:05:10.734Z,14.78
2024-02-19T19:07:37.639Z,14.76
2024-02-19T19:10:04.088Z,14.82
2024-02-19T19:12:30.517Z,14.80
2024-02-19T19:14:56.886Z,14.84
2024-02-19T19:17:23.357Z,14.84
2024-02-19T19:19:49.858Z,14.81
2024-02-19T19:22:16.477Z,14.70
2024-02-19T19:24:42.907Z,14.61
2024-02-19T19:27:09.287Z,14.50
2024-02-19T19:29:35.640Z,14.45
2024-02-19T19:32:01.984Z,14.46
2024-02-19T19:34:28.490Z,14.47
2024-02-19T19:36:55.063Z,14.48
2024-02-19T19:39:21.458Z,14.44
2024-02-19T19:41:47.889Z,14.52
2024-02-19T19:44:14.258Z,14.57
2024-02-19T19:46:40.677Z,14.61
2024-02-19T19:49:07.117Z,14.67
2024-02-19T19:51:33.517Z,14.73
2024-02-19T19:53:59.875Z,14.73
2024-02-19T19:56:26.250Z,14.77
2024-02-19T19:58:52.653Z,14.79
2024-02-19T20:01:19.088Z,14.79
2024-02-19T20:03:45.676Z,14.81
2024-02-19T20:06:12.398Z,14.76
2024-02-19T20:08:38.780Z,14.78
2024-02-19T20:11:05.184Z,14.76
2024-02-19T20:13:31.721Z,14.79
2024-02-19T20:15:58.131Z,14.76
2024-02-19T20:18:24.632Z,14.57
2024-02-19T20:20:51.083Z,14.29
2024-02-19T20:23:17.444Z,14.24
2024-02-19T20:25:43.812Z,14.11
2024-02-19T20:28:10.204Z,13.98
2024-02-19T20:30:36.560Z,13.91
2024-02-19T20:33:03.037Z,13.82
2024-02-19T20:35:29.425Z,13.69
2024-02-19T20:37:55.942Z,13.69
2024-02-19T20:40:22.504Z,13.73
2024-02-19T20:42:48.982Z,13.69
2024-02-19T20:45:15.365Z,13.66
2024-02-19T20:47:41.862Z,13.65
2024-02-19T20:50:08.291Z,13.63
2024-02-19T20:52:34.752Z,13.60
2024-02-19T20:55:01.208Z,13.56
2024-02-19T20:57:27.593Z,13.61
2024-02-19T20:59:53.941Z,13.63
2024-02-19T21:02:20.352Z,13.59
2024-02-19T21:04:46.842Z,13.57
2024-02-19T21:07:13.418Z,13.57
2024-02-19T21:09:39.873Z,13.53
2024-02-19T21:12:06.229Z,13.43
2024-02-19T21:14:32.695Z,13.16
2024-02-19T21:16:59.058Z,13.33
2024-02-19T21:19:25.520Z,13.31
2024-02-19T21:21:52.065Z,13.43
2024-02-19T21:24:18.510Z,13.50
2024-02-19T21:26:44.877Z,13.51
2024-02-19T21:29:11.219Z,13.52
2024-02-19T21:31:37.603Z,13.52
2024-02-19T21:34:04.174Z,13.53
2024-02-19T21:36:30.896Z,13.58
2024-02-19T21:38:57.336Z,13.57
2024-02-19T21:41:23.741Z,13.56
2024-02-19T21:43:50.129Z,13.53
2024-02-19T21:46:16.572Z,13.57
2024-02-19T21:48:43.088Z,13.57
2024-02-19T21:51:09.459Z,13.60
2024-02-19T21:53:35.839Z,13.59
2024-02-19T21:56:02.211Z,13.53
2024-02-19T21:58:28.762Z,13.59
2024-02-19T22:00:55.307Z,13.61
2024-02-19T22:03:21.714Z,13.55
2024-02-19T22:05:48.190Z,13.53
2024-02-19T22:08:14.573Z,13.53
2024-02-19T22:10:41.038Z,13.44
2024-02-19T22:13:07.565Z,13.41
2024-02-19T22:15:33.941Z,13.41
2024-02-19T22:18:00.395Z,13.28
2024-02-19T22:20:26.809Z,13.31
2024-02-19T22:22:53.184Z,13.37
2024-02-19T22:25:19.985Z,13.42
2024-02-19T22:27:46.446Z,13.40
2024-02-19T22:30:12.826Z,13.41
2024-02-19T22:32:39.226Z,13.34
2024-02-19T22:35:05.764Z,13.34
2024-02-19T22:37:32.224Z,13.29
2024-02-19T22:39:58.661Z,13.32
2024-02-19T22:42:25.030Z,13.27
2024-02-19T22:44:51.467Z,13.24
2024-02-19T22:47:17.897Z,13.15
2024-02-19T22:49:44.335Z,13.08
2024-02-19T22:52:10.773Z,13.02
2024-02-19T22:54:37.126Z,13.03
2024-02-19T22:57:03.456Z,13.02
2024-02-19T22:59:29.837Z,13.04
2024-02-19T23:01:56.278Z,13.08
2024-02-19T23:04:22.765Z,13.12
2024-02-19T23:06:49.388Z,13.04
2024-02-19T23:09:15.920Z,13.05
2024-02-19T23:11:42.327Z,13.05
2024-02-19T23:14:08.730Z,13.00
2024-02-19T23:16:35.141Z,13.03
2024-02-19T23:19:01.690Z,13.10
2024-02-19T23:21:28.133Z,13.15
2024-02-19T23:23:54.463Z,13.16
2024-02-19T23:26:20.919Z,13.13
2024-02-19T23:28:47.302Z,13.12
2024-02-19T23:31:13.670Z,13.03
2024-02-19T23:33:40.099Z,12.99
2024-02-19T23:36:06.557Z,13.02
2024-02-19T23:38:32.896Z,13.02
2024-02-19T23:40:59.244Z,12.98
2024-02-19T23:43:25.675Z,12.98
2024-02-19T23:45:52.069Z,12.97
2024-02-19T23:48:18.601Z,12.91
2024-02-19T23:50:45.034Z,12.95
2024-02-19T23:53:11.433Z,12.98
2024-02-19T23:55:37.873Z,12.94
2024-02-19T23:58:04.353Z,12.90
